createdAt,value
2018-06-18T00:00:34.562Z,14.87
2018-06-18T00:03:02.644Z,15.60
2018-06-18T00:05:30.957Z,15.80
2018-06-18T00:07:59.336Z,12.90
2018-06-18T00:10:28.898Z,13.70
2018-06-18T00:12:56.956Z,12.57
2018-06-18T00:15:25.285Z,13.73
2018-06-18T00:17:53.791Z,12.13
2018-06-18T00:20:22.083Z,12.97
2018-06-18T00:22:50.416Z,12.67
2018-06-18T00:25:18.720Z,13.47
2018-06-18T00:27:47.011Z,15.03
2018-06-18T00:30:15.318Z,12.90
2018-06-18T00:32:45.241Z,14.17
2018-06-18T00:35:13.576Z,17.40
2018-06-18T00:37:41.875Z,13.73
2018-06-18T00:40:09.985Z,17.00
2018-06-18T00:42:38.289Z,17.07
2018-06-18T00:45:06.635Z,14.77
2018-06-18T00:47:35.418Z,14.90
2018-06-18T00:50:03.943Z,14.10
2018-06-18T00:52:32.245Z,15.47
2018-06-18T00:55:00.531Z,13.27
2018-06-18T00:57:28.897Z,16.30
2018-06-18T00:59:57.209Z,13.27
2018-06-18T01:02:26.643Z,19.07
2018-06-18T01:04:54.954Z,14.50
2018-06-18T01:07:23.259Z,14.47
2018-06-18T01:09:51.610Z,19.27
2018-06-18T01:12:19.909Z,16.87
2018-06-18T01:14:48.230Z,14.07
2018-06-18T01:17:16.573Z,21.13
2018-06-18T01:19:44.944Z,14.47
2018-06-18T01:22:13.422Z,17.57
2018-06-18T01:24:52.940Z,15.87
2018-06-18T01:27:21.435Z,24.50
2018-06-18T01:29:49.716Z,26.07
2018-06-18T01:32:18.053Z,19.33
2018-06-18T01:34:46.368Z,20.90
2018-06-18T01:37:14.691Z,24.17
2018-06-18T01:39:43.013Z,23.93
2018-06-18T01:42:11.339Z,21.43
2018-06-18T01:44:39.657Z,22.33
2018-06-18T01:47:07.952Z,25.67
2018-06-18T01:49:36.243Z,28.00
2018-06-18T01:52:05.157Z,28.03
2018-06-18T01:54:33.448Z,32.77
2018-06-18T01:57:01.875Z,32.23
2018-06-18T01:59:30.410Z,33.77
2018-06-18T02:01:58.457Z,36.60
2018-06-18T02:04:27.544Z,36.70
2018-06-18T02:06:56.050Z,38.53
2018-06-18T02:09:26.338Z,34.47
2018-06-18T02:11:54.787Z,31.53
2018-06-18T02:14:23.114Z,34.40
2018-06-18T02:16:51.460Z,34.60
2018-06-18T02:19:19.834Z,37.33
2018-06-18T02:21:48.126Z,28.23
2018-06-18T02:24:16.402Z,32.90
2018-06-18T02:26:44.714Z,30.50
2018-06-18T02:29:18.498Z,31.93
2018-06-18T02:31:52.318Z,31.93
2018-06-18T02:34:25.934Z,29.63
2018-06-18T02:36:59.693Z,27.57
2018-06-18T02:39:28.020Z,27.13
2018-06-18T02:41:56.822Z,29.67
2018-06-18T02:44:24.882Z,25.40
2018-06-18T02:46:52.939Z,25.33
2018-06-18T02:49:21.055Z,25.13
2018-06-18T02:51:49.350Z,25.77
2018-06-18T02:54:17.682Z,27.17
2018-06-18T02:56:50.285Z,20.13
2018-06-18T02:59:19.463Z,23.37
2018-06-18T03:01:48.001Z,25.37
2018-06-18T03:04:16.354Z,23.00
2018-06-18T03:06:44.638Z,23.07
2018-06-18T03:09:13.015Z,20.53
2018-06-18T03:11:41.350Z,21.30
2018-06-18T03:14:10.100Z,20.10
2018-06-18T03:16:38.492Z,19.97
2018-06-18T03:19:12.206Z,19.23
2018-06-18T03:21:45.960Z,19.27
2018-06-18T03:24:19.628Z,16.67
2018-06-18T03:26:53.312Z,16.83
2018-06-18T03:29:23.974Z,16.53
2018-06-18T03:31:53.893Z,19.70
2018-06-18T03:34:22.201Z,20.83
2018-06-18T03:36:50.722Z,18.60
2018-06-18T03:39:19.059Z,22.20
2018-06-18T03:41:49.176Z,18.17
2018-06-18T03:44:22.520Z,19.27
2018-06-18T03:46:50.824Z,15.63
2018-06-18T03:49:19.124Z,18.13
2018-06-18T03:51:47.455Z,19.10
2018-06-18T03:54:15.768Z,16.80
2018-06-18T03:56:44.104Z,21.20
2018-06-18T03:59:12.451Z,18.37
2018-06-18T04:01:56.124Z,12.73
2018-06-18T04:04:29.960Z,18.60
2018-06-18T04:07:03.631Z,19.87
2018-06-18T04:09:37.286Z,15.43
2018-06-18T04:12:07.791Z,16.50
2018-06-18T04:14:36.548Z,16.97
2018-06-18T04:17:05.031Z,17.77
2018-06-18T04:19:33.916Z,19.53
2018-06-18T04:22:02.592Z,17.70
2018-06-18T04:24:30.887Z,18.27
2018-06-18T04:26:59.454Z,17.70
2018-06-18T04:29:27.734Z,21.17
2018-06-18T04:31:56.076Z,19.03
2018-06-18T04:34:34.792Z,18.90
2018-06-18T04:37:03.135Z,19.07
2018-06-18T04:39:31.477Z,21.80
2018-06-18T04:42:05.294Z,19.50
2018-06-18T04:44:39.130Z,18.37
2018-06-18T04:47:12.783Z,19.07
2018-06-18T04:49:46.453Z,23.20
2018-06-18T04:52:14.882Z,26.80
2018-06-18T04:54:43.194Z,21.90
2018-06-18T04:57:11.560Z,21.80
2018-06-18T04:59:42.660Z,19.13
2018-06-18T05:02:10.955Z,21.37
2018-06-18T05:04:39.262Z,19.43
2018-06-18T05:07:08.676Z,22.23
2018-06-18T05:09:45.456Z,18.87
2018-06-18T05:12:13.795Z,20.63
2018-06-18T05:14:42.090Z,17.83
2018-06-18T05:17:10.432Z,20.47
2018-06-18T05:19:38.813Z,19.50
2018-06-18T05:22:07.430Z,20.70
2018-06-18T05:24:35.741Z,18.20
2018-06-18T05:27:04.636Z,20.43
2018-06-18T05:29:33.176Z,18.90
2018-06-18T05:32:01.475Z,17.13
2018-06-18T05:34:31.184Z,17.73
2018-06-18T05:37:01.794Z,17.97
2018-06-18T05:39:30.155Z,16.97
2018-06-18T05:41:58.471Z,19.43
2018-06-18T05:44:26.798Z,17.63
2018-06-18T05:46:55.228Z,19.27
2018-06-18T05:49:23.564Z,17.30
2018-06-18T05:51:51.868Z,17.53
2018-06-18T05:54:20.195Z,15.57
2018-06-18T05:56:48.564Z,16.90
2018-06-18T05:59:16.931Z,14.47
2018-06-18T06:01:45.249Z,17.43
2018-06-18T06:04:13.782Z,15.30
2018-06-18T06:06:42.123Z,17.67
2018-06-18T06:09:11.684Z,19.23
2018-06-18T06:11:39.798Z,19.93
2018-06-18T06:14:08.202Z,14.60
2018-06-18T06:16:36.482Z,16.70
2018-06-18T06:19:05.071Z,17.10
2018-06-18T06:21:33.356Z,21.00
2018-06-18T06:24:01.673Z,19.20
2018-06-18T06:26:30.036Z,17.63
2018-06-18T06:28:58.346Z,22.77
2018-06-18T06:31:26.664Z,18.57
2018-06-18T06:33:54.973Z,18.53
2018-06-18T06:36:26.047Z,20.93
2018-06-18T06:38:54.420Z,17.50
2018-06-18T06:41:23.330Z,20.87
2018-06-18T06:43:51.705Z,20.53
2018-06-18T06:46:20.133Z,20.40
2018-06-18T06:48:48.608Z,22.60
2018-06-18T06:51:16.745Z,19.50
2018-06-18T06:53:45.093Z,17.67
2018-06-18T06:56:13.443Z,14.00
2018-06-18T06:58:41.863Z,15.60
2018-06-18T07:01:10.191Z,19.07
2018-06-18T07:03:38.573Z,22.57
2018-06-18T07:06:07.110Z,20.13
2018-06-18T07:08:35.757Z,15.77
2018-06-18T07:11:04.151Z,18.33
2018-06-18T07:13:32.543Z,20.10
2018-06-18T07:16:00.918Z,18.77
2018-06-18T07:18:29.212Z,18.30
2018-06-18T07:20:57.544Z,17.77
2018-06-18T07:23:25.964Z,22.00
2018-06-18T07:25:54.260Z,19.37
2018-06-18T07:28:23.535Z,16.47
2018-06-18T07:30:51.863Z,16.77
2018-06-18T07:33:20.177Z,15.70
2018-06-18T07:35:48.485Z,17.43
2018-06-18T07:38:16.769Z,16.17
2018-06-18T07:40:45.145Z,15.20
2018-06-18T07:43:13.434Z,15.63
2018-06-18T07:45:41.793Z,16.60
2018-06-18T07:48:10.139Z,18.90
2018-06-18T07:50:38.483Z,15.07
2018-06-18T07:53:06.822Z,13.83
2018-06-18T07:55:35.453Z,15.50
2018-06-18T07:58:03.759Z,15.50
2018-06-18T08:00:32.098Z,16.90
2018-06-18T08:03:00.424Z,15.33
2018-06-18T08:05:28.746Z,11.60
2018-06-18T08:07:57.034Z,15.40
2018-06-18T08:10:25.634Z,16.43
2018-06-18T08:12:54.251Z,16.27
2018-06-18T08:15:22.826Z,11.87
2018-06-18T08:17:51.476Z,13.03
2018-06-18T08:20:19.845Z,16.10
2018-06-18T08:22:48.159Z,15.07
2018-06-18T08:25:16.513Z,12.73
2018-06-18T08:27:44.816Z,12.80
2018-06-18T08:30:13.138Z,15.23
2018-06-18T08:32:41.448Z,14.33
2018-06-18T08:35:09.873Z,13.23
2018-06-18T08:37:38.212Z,11.17
2018-06-18T08:40:06.560Z,14.00
2018-06-18T08:42:34.837Z,13.17
2018-06-18T08:45:03.229Z,14.03
2018-06-18T08:47:31.574Z,11.50
2018-06-18T08:50:05.543Z,11.30
2018-06-18T08:52:39.289Z,10.10
2018-06-18T08:55:12.972Z,11.43
2018-06-18T08:57:46.733Z,11.43
2018-06-18T09:00:20.435Z,10.70
2018-06-18T09:02:52.960Z,13.83
2018-06-18T09:05:27.131Z,10.27
2018-06-18T09:07:59.729Z,9.17
2018-06-18T09:10:27.809Z,12.03
2018-06-18T09:12:56.469Z,12.73
2018-06-18T09:15:24.821Z,12.10
2018-06-18T09:17:53.119Z,10.23
2018-06-18T09:20:21.436Z,8.90
2018-06-18T09:22:49.531Z,10.33
2018-06-18T09:25:17.844Z,10.73
2018-06-18T09:27:46.166Z,12.67
2018-06-18T09:30:14.544Z,11.20
2018-06-18T09:32:42.901Z,10.13
2018-06-18T09:35:11.198Z,9.20
2018-06-18T09:37:39.481Z,9.43
2018-06-18T09:40:08.801Z,8.00
2018-06-18T09:42:37.132Z,8.13
2018-06-18T09:45:05.494Z,8.13
2018-06-18T09:47:33.758Z,7.77
2018-06-18T09:50:07.632Z,8.47
2018-06-18T09:52:41.286Z,8.37
2018-06-18T09:55:15.363Z,9.73
2018-06-18T09:57:48.998Z,9.67
2018-06-18T10:00:34.457Z,6.87
2018-06-18T10:03:02.967Z,8.23
2018-06-18T10:05:30.994Z,6.13
2018-06-18T10:07:59.340Z,9.77
2018-06-18T10:10:27.656Z,6.40
2018-06-18T10:12:55.997Z,6.50
2018-06-18T10:15:24.296Z,9.03
2018-06-18T10:17:52.697Z,5.70
2018-06-18T10:20:21.038Z,7.73
2018-06-18T10:22:49.378Z,6.87
2018-06-18T10:25:17.672Z,4.90
2018-06-18T10:27:46.005Z,6.63
2018-06-18T10:30:14.424Z,9.73
2018-06-18T10:32:48.142Z,11.97
2018-06-18T10:35:22.083Z,7.80
2018-06-18T10:37:55.964Z,6.67
2018-06-18T10:41:31.576Z,6.30
2018-06-18T10:43:59.611Z,5.30
2018-06-18T10:46:27.940Z,6.13
2018-06-18T10:48:56.385Z,6.90
2018-06-18T10:51:24.766Z,4.87
2018-06-18T10:53:53.060Z,7.20
2018-06-18T10:56:21.444Z,9.37
2018-06-18T10:58:49.754Z,6.87
2018-06-18T11:01:24.732Z,6.83
2018-06-18T11:03:53.072Z,5.53
2018-06-18T11:06:27.021Z,7.57
2018-06-18T11:08:55.317Z,6.33
2018-06-18T11:11:23.620Z,6.10
2018-06-18T11:13:52.000Z,7.77
2018-06-18T11:16:20.366Z,5.90
2018-06-18T11:18:54.210Z,5.47
2018-06-18T11:21:28.608Z,6.53
2018-06-18T11:24:02.280Z,7.90
2018-06-18T11:26:35.789Z,7.77
2018-06-18T11:29:04.152Z,7.17
2018-06-18T11:31:32.290Z,8.83
2018-06-18T11:34:00.571Z,6.60
2018-06-18T11:36:28.845Z,6.13
2018-06-18T11:38:57.182Z,6.67
2018-06-18T11:41:25.730Z,7.73
2018-06-18T11:43:54.100Z,7.97
2018-06-18T11:46:22.462Z,6.73
2018-06-18T11:48:50.757Z,5.93
2018-06-18T11:51:19.078Z,7.10
2018-06-18T11:53:47.432Z,6.83
2018-06-18T11:56:15.825Z,7.50
2018-06-18T11:58:49.643Z,8.33
2018-06-18T12:01:23.357Z,6.00
2018-06-18T12:03:57.003Z,8.23
2018-06-18T12:07:34.620Z,5.97
2018-06-18T12:10:02.969Z,4.87
2018-06-18T12:12:31.036Z,6.10
2018-06-18T12:14:59.356Z,5.67
2018-06-18T12:17:27.665Z,5.30
2018-06-18T12:19:56.018Z,6.10
2018-06-18T12:22:24.606Z,4.80
2018-06-18T12:24:52.907Z,5.53
2018-06-18T12:27:24.295Z,5.60
2018-06-18T12:29:52.608Z,5.80
2018-06-18T12:32:20.981Z,5.27
2018-06-18T12:34:49.268Z,5.43
2018-06-18T12:37:18.846Z,5.70
2018-06-18T12:39:48.010Z,7.27
2018-06-18T12:42:16.446Z,7.47
2018-06-18T12:44:50.460Z,7.80
2018-06-18T12:47:24.265Z,6.47
2018-06-18T12:49:57.929Z,7.30
2018-06-18T12:52:31.627Z,9.17
2018-06-18T12:55:05.288Z,7.20
2018-06-18T12:57:33.633Z,7.50
2018-06-18T13:00:01.979Z,8.23
2018-06-18T13:02:42.394Z,7.07
2018-06-18T13:05:10.722Z,7.23
2018-06-18T13:07:39.028Z,7.50
2018-06-18T13:10:07.670Z,6.63
2018-06-18T13:12:35.953Z,7.40
2018-06-18T13:15:04.283Z,7.23
2018-06-18T13:17:32.852Z,6.80
2018-06-18T13:20:01.381Z,6.43
2018-06-18T13:22:29.472Z,6.53
2018-06-18T13:24:57.555Z,6.47
2018-06-18T13:27:31.329Z,7.63
2018-06-18T13:29:59.620Z,7.00
2018-06-18T13:32:27.901Z,8.10
2018-06-18T13:34:56.234Z,8.77
2018-06-18T13:37:30.067Z,7.97
2018-06-18T13:40:03.935Z,7.90
2018-06-18T13:42:37.564Z,9.33
2018-06-18T13:45:11.367Z,9.23
2018-06-18T13:47:45.085Z,8.57
2018-06-18T13:50:13.423Z,9.07
2018-06-18T13:52:41.724Z,12.33
2018-06-18T13:55:10.360Z,12.03
2018-06-18T13:57:38.709Z,11.50
2018-06-18T14:00:08.377Z,11.93
2018-06-18T14:02:36.693Z,11.00
2018-06-18T14:05:05.044Z,12.03
2018-06-18T14:07:33.362Z,12.83
2018-06-18T14:10:01.745Z,12.47
2018-06-18T14:12:30.092Z,13.63
2018-06-18T14:14:58.406Z,13.70
2018-06-18T14:17:26.998Z,12.43
2018-06-18T14:20:00.626Z,12.67
2018-06-18T14:22:29.002Z,13.50
2018-06-18T14:24:57.612Z,13.83
2018-06-18T14:27:25.722Z,14.27
2018-06-18T14:29:59.559Z,12.37
2018-06-18T14:32:33.452Z,13.13
2018-06-18T14:35:07.080Z,12.47
2018-06-18T14:37:40.799Z,12.70
2018-06-18T14:40:11.148Z,13.53
2018-06-18T14:42:39.528Z,14.23
2018-06-18T14:45:07.797Z,14.03
2018-06-18T14:47:35.924Z,16.07
2018-06-18T14:50:04.299Z,15.83
2018-06-18T14:52:32.708Z,16.00
2018-06-18T14:55:01.009Z,16.17
2018-06-18T14:57:29.362Z,15.63
2018-06-18T15:00:02.457Z,15.23
2018-06-18T15:02:30.575Z,14.80
2018-06-18T15:04:59.145Z,13.20
2018-06-18T15:07:27.564Z,13.33
2018-06-18T15:09:55.853Z,15.77
2018-06-18T15:12:25.671Z,14.63
2018-06-18T15:14:59.469Z,14.30
2018-06-18T15:17:27.713Z,15.57
2018-06-18T15:19:56.072Z,13.53
2018-06-18T15:22:26.903Z,15.33
2018-06-18T15:24:58.531Z,13.67
2018-06-18T15:27:26.617Z,13.00
2018-06-18T15:29:54.923Z,14.30
2018-06-18T15:32:23.329Z,12.77
2018-06-18T15:34:51.761Z,12.20
2018-06-18T15:37:20.101Z,14.93
2018-06-18T15:39:48.406Z,18.20
2018-06-18T15:42:16.748Z,14.27
2018-06-18T16:07:48.916Z,11.10
2018-06-18T16:10:17.222Z,10.87
2018-06-18T16:12:45.737Z,11.17
2018-06-18T16:15:14.100Z,11.33
2018-06-18T16:17:42.412Z,12.23
2018-06-18T16:20:10.787Z,12.00
2018-06-18T16:22:39.159Z,12.60
2018-06-18T16:25:07.594Z,13.97
2018-06-18T16:27:35.852Z,12.40
2018-06-18T16:30:04.353Z,11.90
2018-06-18T16:32:32.696Z,14.13
2018-06-18T16:35:00.787Z,12.70
2018-06-18T16:37:29.112Z,12.30
2018-06-18T16:39:59.651Z,14.10
2018-06-18T16:42:27.963Z,12.00
2018-06-18T16:44:56.247Z,11.50
2018-06-18T16:47:24.596Z,12.87
2018-06-18T16:49:52.888Z,13.13
2018-06-18T16:52:21.225Z,12.50
2018-06-18T16:54:49.565Z,18.37
2018-06-18T16:57:17.904Z,11.50
2018-06-18T16:59:46.217Z,11.93
2018-06-18T17:02:14.562Z,13.10
2018-06-18T17:04:42.875Z,11.60
2018-06-18T17:07:11.255Z,13.33
2018-06-18T17:09:39.556Z,14.07
2018-06-18T17:12:08.022Z,15.07
2018-06-18T17:14:36.392Z,14.57
2018-06-18T17:17:05.740Z,14.43
2018-06-18T17:19:34.258Z,14.10
2018-06-18T17:22:02.738Z,13.70
2018-06-18T17:24:31.130Z,14.67
2018-06-18T17:26:59.457Z,12.30
2018-06-18T17:29:27.806Z,14.40
2018-06-18T17:31:56.109Z,12.27
2018-06-18T17:34:24.436Z,11.97
2018-06-18T17:36:53.366Z,14.27
2018-06-18T17:39:21.673Z,11.43
2018-06-18T17:41:50.021Z,11.77
2018-06-18T17:44:18.346Z,14.37
2018-06-18T17:46:46.710Z,13.30
2018-06-18T17:49:15.128Z,11.87
2018-06-18T17:51:43.447Z,14.00
2018-06-18T17:54:12.546Z,13.93
2018-06-18T17:56:40.990Z,12.57
2018-06-18T17:59:09.318Z,13.03
2018-06-18T18:01:37.618Z,13.70
2018-06-18T18:04:06.130Z,13.17
2018-06-18T18:06:34.488Z,13.77
2018-06-18T18:09:03.207Z,13.50
2018-06-18T18:11:32.508Z,12.47
2018-06-18T18:14:00.625Z,12.10
2018-06-18T18:16:28.976Z,16.30
2018-06-18T18:18:57.304Z,10.47
2018-06-18T18:21:25.639Z,12.40
2018-06-18T18:23:53.952Z,12.47
2018-06-18T18:26:22.303Z,11.10
2018-06-18T18:28:50.654Z,14.80
2018-06-18T18:31:18.971Z,14.57
2018-06-18T18:33:47.322Z,13.63
2018-06-18T18:36:15.653Z,11.27
2018-06-18T18:38:43.959Z,12.67
2018-06-18T18:41:12.579Z,10.83
2018-06-18T18:43:40.878Z,10.10
2018-06-18T18:46:09.180Z,11.83
2018-06-18T18:48:37.575Z,15.07
2018-06-18T18:51:05.700Z,14.57
2018-06-18T18:53:34.376Z,14.40
2018-06-18T18:56:14.289Z,12.43
2018-06-18T18:59:02.986Z,13.77
2018-06-18T19:01:31.367Z,14.33
2018-06-18T19:04:02.083Z,13.63
2018-06-18T19:06:30.463Z,14.43
2018-06-18T19:09:05.404Z,15.80
2018-06-18T19:11:33.830Z,14.73
2018-06-18T19:14:02.348Z,15.10
2018-06-18T19:16:30.722Z,12.93
2018-06-18T19:19:01.611Z,12.20
2018-06-18T19:21:29.927Z,18.87
2018-06-18T19:23:58.311Z,13.57
2018-06-18T19:26:26.742Z,15.03
2018-06-18T19:28:55.124Z,19.13
2018-06-18T19:31:24.922Z,14.57
2018-06-18T19:34:06.585Z,18.93
2018-06-18T19:36:35.151Z,18.77
2018-06-18T19:39:03.573Z,16.67
2018-06-18T19:41:32.032Z,14.93
2018-06-18T19:44:00.394Z,13.63
2018-06-18T19:46:32.883Z,15.50
2018-06-18T19:49:07.055Z,15.43
2018-06-18T19:51:35.449Z,16.03
2018-06-18T19:54:04.829Z,14.80
2018-06-18T19:56:33.201Z,15.50
2018-06-18T19:59:01.512Z,15.90
2018-06-18T20:01:30.009Z,14.00
2018-06-18T20:03:58.307Z,21.83
2018-06-18T20:06:26.630Z,15.23
2018-06-18T20:08:55.016Z,15.50
2018-06-18T20:11:23.333Z,18.03
2018-06-18T20:13:51.632Z,16.63
2018-06-18T20:16:19.968Z,17.07
2018-06-18T20:18:48.285Z,16.37
2018-06-18T20:21:16.633Z,16.23
2018-06-18T20:23:44.941Z,16.03
2018-06-18T20:32:56.649Z,20.67
2018-06-18T20:35:28.376Z,17.67
2018-06-18T20:37:57.017Z,19.93
2018-06-18T20:40:25.615Z,19.77
2018-06-18T20:42:53.975Z,18.87
2018-06-18T20:45:22.075Z,22.87
2018-06-18T20:47:50.402Z,19.10
2018-06-18T20:50:18.746Z,19.30
2018-06-18T20:52:47.466Z,18.73
2018-06-18T20:55:15.954Z,18.37
2018-06-18T20:57:44.595Z,19.90
2018-06-18T21:00:12.901Z,19.93
2018-06-18T21:02:41.346Z,19.80
2018-06-18T21:05:09.774Z,20.00
2018-06-18T21:07:38.109Z,18.83
2018-06-18T21:10:06.508Z,20.70
2018-06-18T21:12:35.052Z,19.77
2018-06-18T21:15:03.411Z,22.43
2018-06-18T21:17:31.771Z,21.50
2018-06-18T21:20:00.072Z,21.20
2018-06-18T21:22:28.460Z,21.23
2018-06-18T21:24:57.099Z,19.83
2018-06-18T21:27:25.397Z,20.73
2018-06-18T21:29:53.695Z,19.77
2018-06-18T21:32:22.017Z,19.87
2018-06-18T21:34:50.341Z,17.93
2018-06-18T21:37:18.660Z,18.70
2018-06-18T21:39:46.982Z,18.07
2018-06-18T21:42:15.319Z,17.83
2018-06-18T21:44:52.484Z,17.63
2018-06-18T21:47:20.819Z,19.53
2018-06-18T21:49:49.125Z,20.13
2018-06-18T21:52:17.689Z,15.53
2018-06-18T21:54:45.988Z,18.87
2018-06-18T21:57:14.281Z,19.30
2018-06-18T21:59:42.652Z,20.00
2018-06-18T22:02:10.954Z,18.03
2018-06-18T22:04:39.288Z,17.33
2018-06-18T22:07:07.665Z,17.27
2018-06-18T22:09:35.988Z,19.60
2018-06-18T22:12:04.360Z,17.50
2018-06-18T22:14:32.700Z,16.37
2018-06-18T22:17:00.992Z,19.50
2018-06-18T22:19:29.389Z,16.00
2018-06-18T22:21:57.763Z,21.17
2018-06-18T22:24:26.220Z,15.97
2018-06-18T22:26:54.561Z,17.37
2018-06-18T22:29:22.597Z,16.50
2018-06-18T22:31:50.937Z,16.87
2018-06-18T22:34:19.291Z,19.23
2018-06-18T22:36:47.626Z,15.77
2018-06-18T22:39:15.923Z,16.30
2018-06-18T22:41:44.252Z,15.33
2018-06-18T22:44:12.574Z,12.80
2018-06-18T22:46:40.905Z,13.43
2018-06-18T22:49:09.321Z,15.43
2018-06-18T22:51:37.626Z,12.27
2018-06-18T22:54:05.949Z,13.63
2018-06-18T22:56:34.266Z,16.13
2018-06-18T22:59:02.605Z,13.47
2018-06-18T23:01:30.904Z,13.37
2018-06-18T23:03:59.235Z,10.47
2018-06-18T23:06:27.550Z,13.07
2018-06-18T23:08:55.910Z,12.13
2018-06-18T23:11:24.222Z,12.90
2018-06-18T23:13:52.516Z,12.87
2018-06-18T23:16:20.852Z,12.50
2018-06-18T23:18:49.148Z,12.17
2018-06-18T23:21:17.501Z,11.83
2018-06-18T23:23:45.868Z,12.60
2018-06-18T23:26:14.173Z,12.63
2018-06-18T23:28:47.717Z,11.37
2018-06-18T23:31:16.138Z,15.30
2018-06-18T23:33:44.450Z,16.63
2018-06-18T23:36:12.772Z,13.97
2018-06-18T23:38:41.102Z,11.90
2018-06-18T23:41:09.506Z,13.07
2018-06-18T23:43:38.007Z,10.90
2018-06-18T23:46:06.293Z,11.53
2018-06-18T23:48:34.574Z,11.03
2018-06-18T23:51:02.897Z,14.50
2018-06-18T23:53:30.976Z,11.53
2018-06-18T23:55:59.312Z,11.20
2018-06-18T23:58:27.940Z,13.90
